WetterOnline ( https://www.wetteronline.de )

Wetter aktuell Kappeln

Aktuelles Wetter: Schönhagen (Ostseebad) (2m)

6-stündlich | Neueste Meldungen
Ortszeit Temperatur Wetter
Mo, 26.02. 13:00 4.7° C wolkig
Mo, 26.02. 7:00 0.4° C Nebel
Mo, 26.02. 1:00 3.2° C bedeckt
So, 25.02. 19:00 4.1° C bedeckt
So, 25.02. 13:00 5.9° C bedeckt
So, 25.02. 7:00 3.1° C wolkig
So, 25.02. 1:00 3.9° C wolkig
Sa, 24.02. 19:00 5.6° C bedeckt
Ortszeit Temperatur Wetter
Mo, 26.02. 14:00 5.1° C bedeckt
Mo, 26.02. 13:50 5.1° C bedeckt
Mo, 26.02. 13:40 5.2° C bedeckt
Mo, 26.02. 13:30 4.8° C bedeckt
Mo, 26.02. 13:20 4.8° C bedeckt
Mo, 26.02. 13:10 4.6° C bedeckt
Mo, 26.02. 13:00 4.7° C wolkig
Mo, 26.02. 12:30 4.4° C wolkig
Mo, 26.02. 12:00 3.9° C bewölkt
Mo, 26.02. 11:30 3.0° C bewölkt
Mo, 26.02. 11:00 2.7° C Nebel
Ortszeit Relative Feuchte Sichtweite
Mo, 26.02. 13:00 91% 14 km
Mo, 26.02. 7:00 100% 100 m
Mo, 26.02. 1:00 98% 8 km
So, 25.02. 19:00 95% 35 km
So, 25.02. 13:00 82% 65 km
So, 25.02. 7:00 87% 50 km
So, 25.02. 1:00 92% 15 km
Sa, 24.02. 19:00 83% 55 km
Ortszeit Relative Feuchte Sichtweite
Mo, 26.02. 14:00 89% 16 km
Mo, 26.02. 13:50 89% -
Mo, 26.02. 13:40 90% -
Mo, 26.02. 13:30 92% 11 km
Mo, 26.02. 13:20 92% -
Mo, 26.02. 13:10 91% -
Mo, 26.02. 13:00 91% 14 km
Mo, 26.02. 12:30 95% 14 km
Mo, 26.02. 12:00 97% 9 km
Mo, 26.02. 11:30 99% 5.0 km
Mo, 26.02. 11:00 99% 1.8 km
Ortszeit Niederschlagsmenge Niederschlagsart
Mo, 26.02. 13:00 0.0 l/m2 in 6 Std. -
Mo, 26.02. 7:00 0.7 l/m2 in 12 Std. -
Mo, 26.02. 1:00 0.7 l/m2 in 6 Std. Regen
So, 25.02. 19:00 2 l/m2 in 12 Std. Regen
So, 25.02. 13:00 0.2 l/m2 in 6 Std. Regen
So, 25.02. 7:00 3 l/m2 in 12 Std. Regen
So, 25.02. 1:00 3 l/m2 in 6 Std. Regen
Sa, 24.02. 19:00 0.1 l/m2 in 12 Std. Regen
Ortszeit Niederschlagsmenge Niederschlagsart
Mo, 26.02. 14:00 0.0 l/m2 in 1 Std. -
Mo, 26.02. 13:50 keine Meldung -
Mo, 26.02. 13:40 keine Meldung -
Mo, 26.02. 13:30 0.0 l/m2 in 30 Min -
Mo, 26.02. 13:20 keine Meldung -
Mo, 26.02. 13:10 keine Meldung -
Mo, 26.02. 13:00 0.0 l/m2 in 1 Std. -
Mo, 26.02. 12:30 0.0 l/m2 in 30 Min -
Mo, 26.02. 12:00 0.0 l/m2 in 1 Std. -
Mo, 26.02. 11:30 0.0 l/m2 in 30 Min -
Mo, 26.02. 11:00 0.0 l/m2 in 1 Std. -
Ortszeit Stärke Spitze Richtung
km/h Bft. km/h Grad Sektor
Mo, 26.02. 13:00 13 3 20 10° N
Mo, 26.02. 7:00 7 2 18 310° NW
Mo, 26.02. 1:00 6 1 26 210° SW
So, 25.02. 19:00 9 2 24 130° SO
So, 25.02. 13:00 17 3 30 160° S
So, 25.02. 7:00 11 2 29 160° S
So, 25.02. 1:00 11 2 43 200° S
Sa, 24.02. 19:00 6 1 26 120° SO
Ortszeit Stärke Spitze Richtung
km/h Bft. km/h Grad Sektor
Mo, 26.02. 14:00 14 3 22 360° N
Mo, 26.02. 13:50 14 3 - 360° N
Mo, 26.02. 13:40 14 3 - 360° N
Mo, 26.02. 13:30 15 3 20 10° N
Mo, 26.02. 13:20 15 3 - 10° N
Mo, 26.02. 13:10 14 3 - 360° N
Mo, 26.02. 13:00 13 3 20 10° N
Mo, 26.02. 12:30 7 2 14 20° N
Mo, 26.02. 12:00 4 1 7 90° O
Mo, 26.02. 11:30 6 1 7 90° O
Mo, 26.02. 11:00 4 1 11 80° O
Ortszeit Untergrenze Bedeckung Gattung
total tief tief mittel hoch
Mo, 26.02. 13:00 210 m 8/8 2/8 - - -
Mo, 26.02. 7:00 <30 m 8/8 0/8 - - -
Mo, 26.02. 1:00 750 m 8/8 8/8 - - -
So, 25.02. 19:00 1140 m 8/8 8/8 - - -
So, 25.02. 13:00 510 m 8/8 8/8 - - -
So, 25.02. 7:00 1500 m 8/8 1/8 - - -
So, 25.02. 1:00 1500 m 6/8 6/8 - - -
Sa, 24.02. 19:00 690 m 8/8 8/8 - - -
Ortszeit Bedeckungsgrad in Achtel und Wolkenuntergrenze
Mo, 26.02. 14:00 8(5700m)
Mo, 26.02. 13:50 8(5700m)
Mo, 26.02. 13:40 8
Mo, 26.02. 13:30 8(5700m)
Mo, 26.02. 13:20 8(5700m)
Mo, 26.02. 13:10 8
Mo, 26.02. 13:00 2(210m) 8(6000m)
Mo, 26.02. 12:30 3(180m) 7(6000m)
Mo, 26.02. 12:00 7(6300m)
Mo, 26.02. 11:30 6(30m) 7(450m)
Mo, 26.02. 11:00 8(30m) 8(360m)
Ortszeit Luftdruck NN (hPa) Tendenz (hPa in 3 Std.)
Mo, 26.02. 13:00 1010 + 1,3
Mo, 26.02. 7:00 1007 + 1,8
Mo, 26.02. 1:00 1004 + 0,9
So, 25.02. 19:00 1003 + 1,2
So, 25.02. 13:00 1002 - 0,7
So, 25.02. 7:00 1003 - 0,1
So, 25.02. 1:00 1003 + 0,5
Sa, 24.02. 19:00 1000 + 0,8
Ortszeit Luftdruck NN (hPa) Tendenz (hPa in 3 Std.)
Mo, 26.02. 14:00 1010 + 1,0
Mo, 26.02. 13:50 1010 keine Meldung
Mo, 26.02. 13:40 1010 keine Meldung
Mo, 26.02. 13:30 1010 + 1,1
Mo, 26.02. 13:20 1010 keine Meldung
Mo, 26.02. 13:10 1010 keine Meldung
Mo, 26.02. 13:00 1010 + 1,3
Mo, 26.02. 12:30 1010 + 1,6
Mo, 26.02. 12:00 1010 + 1,8
Mo, 26.02. 11:30 1010 + 1,8
Mo, 26.02. 11:00 1009 + 1,8
Ortszeit Schneehöhe (cm)
Mo, 26.02. 13:00 0
Mo, 26.02. 7:00 0
Mo, 26.02. 1:00 0
So, 25.02. 19:00 0
So, 25.02. 13:00 0
So, 25.02. 7:00 0
So, 25.02. 1:00 0
Sa, 24.02. 19:00 0
Ortszeit Schneehöhe (cm)
Mo, 26.02. 14:00 0
Mo, 26.02. 13:50 0
Mo, 26.02. 13:40 -
Mo, 26.02. 13:30 0
Mo, 26.02. 13:20 0
Mo, 26.02. 13:10 -
Mo, 26.02. 13:00 0
Mo, 26.02. 12:30 0
Mo, 26.02. 12:00 0
Mo, 26.02. 11:30 0
Mo, 26.02. 11:00 0
Link zu dieser Seite / Seite empfehlen

Das Wetter in ...